sensor_id;sensor_type;location;lat;lon;timestamp;P1;durP1;ratioP1;P2;durP2;ratioP2
17141;SDS011;32805;53.556;9.944;2023-07-31T00:01:00;6.35;;;2.50;;
17141;SDS011;32805;53.556;9.944;2023-07-31T00:03:28;7.55;;;2.75;;
17141;SDS011;32805;53.556;9.944;2023-07-31T00:05:55;4.72;;;2.30;;
17141;SDS011;32805;53.556;9.944;2023-07-31T00:08:23;8.25;;;2.53;;
17141;SDS011;32805;53.556;9.944;2023-07-31T00:10:52;7.03;;;2.58;;
17141;SDS011;32805;53.556;9.944;2023-07-31T00:13:20;7.15;;;2.80;;
17141;SDS011;32805;53.556;9.944;2023-07-31T00:15:48;4.32;;;2.45;;
17141;SDS011;32805;53.556;9.944;2023-07-31T00:18:15;7.55;;;2.60;;
17141;SDS011;32805;53.556;9.944;2023-07-31T00:20:43;6.05;;;2.30;;
17141;SDS011;32805;53.556;9.944;2023-07-31T00:23:10;6.95;;;2.72;;
17141;SDS011;32805;53.556;9.944;2023-07-31T00:25:39;5.82;;;2.90;;
17141;SDS011;32805;53.556;9.944;2023-07-31T00:28:08;6.47;;;2.92;;
17141;SDS011;32805;53.556;9.944;2023-07-31T00:30:35;7.38;;;2.70;;
17141;SDS011;32805;53.556;9.944;2023-07-31T00:33:03;7.40;;;2.67;;
17141;SDS011;32805;53.556;9.944;2023-07-31T00:35:31;9.35;;;2.70;;
17141;SDS011;32805;53.556;9.944;2023-07-31T00:37:59;8.77;;;2.65;;
17141;SDS011;32805;53.556;9.944;2023-07-31T00:40:26;8.32;;;2.30;;
17141;SDS011;32805;53.556;9.944;2023-07-31T00:42:54;8.05;;;2.67;;
17141;SDS011;32805;53.556;9.944;2023-07-31T00:45:23;9.45;;;2.30;;
17141;SDS011;32805;53.556;9.944;2023-07-31T00:47:53;6.32;;;2.28;;
17141;SDS011;32805;53.556;9.944;2023-07-31T00:50:23;7.22;;;2.50;;
17141;SDS011;32805;53.556;9.944;2023-07-31T00:52:51;9.68;;;2.55;;
17141;SDS011;32805;53.556;9.944;2023-07-31T00:55:19;6.03;;;2.28;;
17141;SDS011;32805;53.556;9.944;2023-07-31T00:57:48;6.43;;;2.20;;
17141;SDS011;32805;53.556;9.944;2023-07-31T01:00:17;5.80;;;2.10;;
17141;SDS011;32805;53.556;9.944;2023-07-31T01:02:46;6.75;;;2.10;;
17141;SDS011;32805;53.556;9.944;2023-07-31T01:05:15;6.05;;;2.25;;
17141;SDS011;32805;53.556;9.944;2023-07-31T01:07:45;5.90;;;2.20;;
17141;SDS011;32805;53.556;9.944;2023-07-31T01:10:18;7.57;;;2.13;;
17141;SDS011;32805;53.556;9.944;2023-07-31T01:12:50;6.20;;;2.47;;
17141;SDS011;32805;53.556;9.944;2023-07-31T01:15:18;4.55;;;2.00;;
17141;SDS011;32805;53.556;9.944;2023-07-31T01:17:47;6.53;;;1.80;;
17141;SDS011;32805;53.556;9.944;2023-07-31T01:20:17;6.57;;;2.65;;
17141;SDS011;32805;53.556;9.944;2023-07-31T01:22:58;6.93;;;2.03;;
17141;SDS011;32805;53.556;9.944;2023-07-31T01:25:59;5.47;;;2.20;;
17141;SDS011;32805;53.556;9.944;2023-07-31T01:28:33;6.22;;;2.80;;
17141;SDS011;32805;53.556;9.944;2023-07-31T01:31:06;9.13;;;2.65;;
17141;SDS011;32805;53.556;9.944;2023-07-31T01:33:37;6.85;;;3.15;;
17141;SDS011;32805;53.556;9.944;2023-07-31T01:36:05;5.82;;;2.75;;
17141;SDS011;32805;53.556;9.944;2023-07-31T01:38:34;6.70;;;3.40;;
17141;SDS011;32805;53.556;9.944;2023-07-31T01:41:03;5.07;;;3.17;;
17141;SDS011;32805;53.556;9.944;2023-07-31T01:43:31;7.47;;;2.50;;
17141;SDS011;32805;53.556;9.944;2023-07-31T01:45:58;5.53;;;3.10;;
17141;SDS011;32805;53.556;9.944;2023-07-31T01:48:26;5.75;;;3.13;;
17141;SDS011;32805;53.556;9.944;2023-07-31T01:50:54;5.60;;;2.90;;
17141;SDS011;32805;53.556;9.944;2023-07-31T01:53:22;8.77;;;2.97;;
17141;SDS011;32805;53.556;9.944;2023-07-31T01:55:50;5.43;;;2.83;;
17141;SDS011;32805;53.556;9.944;2023-07-31T01:58:19;9.00;;;2.92;;
17141;SDS011;32805;53.556;9.944;2023-07-31T02:00:47;6.93;;;3.40;;
17141;SDS011;32805;53.556;9.944;2023-07-31T02:03:14;8.85;;;3.50;;
17141;SDS011;32805;53.556;9.944;2023-07-31T02:05:43;5.28;;;3.05;;
17141;SDS011;32805;53.556;9.944;2023-07-31T02:08:12;4.45;;;2.72;;
17141;SDS011;32805;53.556;9.944;2023-07-31T02:10:39;5.97;;;2.72;;
17141;SDS011;32805;53.556;9.944;2023-07-31T02:13:07;4.32;;;2.83;;
17141;SDS011;32805;53.556;9.944;2023-07-31T02:15:36;4.85;;;2.60;;
17141;SDS011;32805;53.556;9.944;2023-07-31T02:18:04;7.55;;;3.00;;
17141;SDS011;32805;53.556;9.944;2023-07-31T02:20:33;6.68;;;3.40;;
17141;SDS011;32805;53.556;9.944;2023-07-31T02:23:01;8.98;;;3.20;;
17141;SDS011;32805;53.556;9.944;2023-07-31T02:25:30;6.65;;;3.15;;
17141;SDS011;32805;53.556;9.944;2023-07-31T02:27:57;9.35;;;4.75;;
17141;SDS011;32805;53.556;9.944;2023-07-31T02:30:25;9.05;;;2.95;;
17141;SDS011;32805;53.556;9.944;2023-07-31T02:32:54;7.15;;;3.05;;
17141;SDS011;32805;53.556;9.944;2023-07-31T02:35:22;5.85;;;2.83;;
17141;SDS011;32805;53.556;9.944;2023-07-31T02:37:50;7.32;;;3.40;;
17141;SDS011;32805;53.556;9.944;2023-07-31T02:40:18;8.48;;;3.22;;
17141;SDS011;32805;53.556;9.944;2023-07-31T02:42:46;10.63;;;3.35;;
17141;SDS011;32805;53.556;9.944;2023-07-31T02:45:13;6.55;;;2.95;;
17141;SDS011;32805;53.556;9.944;2023-07-31T02:47:41;6.88;;;3.13;;
17141;SDS011;32805;53.556;9.944;2023-07-31T02:50:10;7.07;;;3.15;;
17141;SDS011;32805;53.556;9.944;2023-07-31T02:52:38;8.50;;;3.10;;
17141;SDS011;32805;53.556;9.944;2023-07-31T02:55:06;5.45;;;2.60;;
17141;SDS011;32805;53.556;9.944;2023-07-31T02:57:34;5.63;;;2.67;;
17141;SDS011;32805;53.556;9.944;2023-07-31T03:00:02;4.75;;;2.65;;
17141;SDS011;32805;53.556;9.944;2023-07-31T03:02:32;7.70;;;3.30;;
17141;SDS011;32805;53.556;9.944;2023-07-31T03:05:00;7.22;;;2.78;;
17141;SDS011;32805;53.556;9.944;2023-07-31T03:07:29;5.82;;;3.00;;
17141;SDS011;32805;53.556;9.944;2023-07-31T03:09:57;6.15;;;2.95;;
17141;SDS011;32805;53.556;9.944;2023-07-31T03:12:25;5.00;;;3.05;;
17141;SDS011;32805;53.556;9.944;2023-07-31T03:14:52;5.88;;;2.80;;
17141;SDS011;32805;53.556;9.944;2023-07-31T03:17:20;7.45;;;3.35;;
17141;SDS011;32805;53.556;9.944;2023-07-31T03:19:48;8.05;;;3.03;;
17141;SDS011;32805;53.556;9.944;2023-07-31T03:22:15;6.68;;;3.20;;
17141;SDS011;32805;53.556;9.944;2023-07-31T03:24:44;7.63;;;2.97;;
17141;SDS011;32805;53.556;9.944;2023-07-31T03:27:12;3.60;;;2.75;;
17141;SDS011;32805;53.556;9.944;2023-07-31T03:29:40;3.63;;;2.72;;
17141;SDS011;32805;53.556;9.944;2023-07-31T03:32:07;5.20;;;2.80;;
17141;SDS011;32805;53.556;9.944;2023-07-31T03:34:35;9.02;;;2.53;;
17141;SDS011;32805;53.556;9.944;2023-07-31T03:37:05;5.75;;;2.85;;
17141;SDS011;32805;53.556;9.944;2023-07-31T03:39:33;5.57;;;2.58;;
17141;SDS011;32805;53.556;9.944;2023-07-31T03:42:02;5.57;;;3.22;;
17141;SDS011;32805;53.556;9.944;2023-07-31T03:44:30;5.30;;;2.70;;
17141;SDS011;32805;53.556;9.944;2023-07-31T03:46:58;5.45;;;2.80;;
17141;SDS011;32805;53.556;9.944;2023-07-31T03:49:25;6.15;;;3.33;;
17141;SDS011;32805;53.556;9.944;2023-07-31T03:51:53;4.95;;;2.97;;
17141;SDS011;32805;53.556;9.944;2023-07-31T03:54:21;6.47;;;2.92;;
17141;SDS011;32805;53.556;9.944;2023-07-31T03:56:49;3.78;;;2.78;;
17141;SDS011;32805;53.556;9.944;2023-07-31T03:59:18;5.70;;;2.90;;
17141;SDS011;32805;53.556;9.944;2023-07-31T04:01:45;4.05;;;2.60;;
17141;SDS011;32805;53.556;9.944;2023-07-31T04:04:13;4.28;;;2.40;;
17141;SDS011;32805;53.556;9.944;2023-07-31T04:06:41;3.97;;;3.08;;
17141;SDS011;32805;53.556;9.944;2023-07-31T04:09:08;4.25;;;2.80;;
17141;SDS011;32805;53.556;9.944;2023-07-31T04:11:36;2.50;;;2.22;;
17141;SDS011;32805;53.556;9.944;2023-07-31T04:14:05;3.67;;;2.47;;
17141;SDS011;32805;53.556;9.944;2023-07-31T04:16:34;2.40;;;2.20;;
17141;SDS011;32805;53.556;9.944;2023-07-31T04:19:03;6.32;;;2.70;;
17141;SDS011;32805;53.556;9.944;2023-07-31T04:21:30;4.38;;;2.78;;
17141;SDS011;32805;53.556;9.944;2023-07-31T04:23:58;4.47;;;2.80;;
17141;SDS011;32805;53.556;9.944;2023-07-31T04:26:26;5.13;;;2.90;;
17141;SDS011;32805;53.556;9.944;2023-07-31T04:28:53;3.42;;;2.70;;
17141;SDS011;32805;53.556;9.944;2023-07-31T04:31:21;3.30;;;2.50;;
17141;SDS011;32805;53.556;9.944;2023-07-31T04:33:50;6.53;;;2.75;;
17141;SDS011;32805;53.556;9.944;2023-07-31T04:36:18;4.82;;;2.72;;
17141;SDS011;32805;53.556;9.944;2023-07-31T04:38:45;6.30;;;3.67;;
17141;SDS011;32805;53.556;9.944;2023-07-31T04:41:13;3.92;;;2.40;;
17141;SDS011;32805;53.556;9.944;2023-07-31T04:43:42;5.10;;;2.58;;
17141;SDS011;32805;53.556;9.944;2023-07-31T04:46:09;7.50;;;3.42;;
17141;SDS011;32805;53.556;9.944;2023-07-31T04:48:37;3.95;;;2.78;;
17141;SDS011;32805;53.556;9.944;2023-07-31T04:51:06;3.33;;;2.80;;
17141;SDS011;32805;53.556;9.944;2023-07-31T04:53:33;4.43;;;2.80;;
17141;SDS011;32805;53.556;9.944;2023-07-31T04:56:01;4.15;;;3.22;;
17141;SDS011;32805;53.556;9.944;2023-07-31T04:58:28;5.45;;;3.30;;
17141;SDS011;32805;53.556;9.944;2023-07-31T05:00:56;5.32;;;3.50;;
17141;SDS011;32805;53.556;9.944;2023-07-31T05:03:24;4.22;;;3.58;;
17141;SDS011;32805;53.556;9.944;2023-07-31T05:05:52;3.67;;;3.35;;
17141;SDS011;32805;53.556;9.944;2023-07-31T05:08:21;4.05;;;3.15;;
17141;SDS011;32805;53.556;9.944;2023-07-31T05:10:48;4.43;;;3.33;;
17141;SDS011;32805;53.556;9.944;2023-07-31T05:13:16;5.07;;;3.20;;
17141;SDS011;32805;53.556;9.944;2023-07-31T05:15:43;5.22;;;3.45;;
17141;SDS011;32805;53.556;9.944;2023-07-31T05:18:12;3.40;;;3.00;;
17141;SDS011;32805;53.556;9.944;2023-07-31T05:20:39;4.47;;;3.28;;
17141;SDS011;32805;53.556;9.944;2023-07-31T05:23:07;3.33;;;2.97;;
17141;SDS011;32805;53.556;9.944;2023-07-31T05:25:36;5.13;;;2.83;;
17141;SDS011;32805;53.556;9.944;2023-07-31T05:28:04;7.47;;;5.05;;
17141;SDS011;32805;53.556;9.944;2023-07-31T05:30:31;5.22;;;3.40;;
17141;SDS011;32805;53.556;9.944;2023-07-31T05:32:59;4.80;;;3.60;;
17141;SDS011;32805;53.556;9.944;2023-07-31T05:35:27;3.85;;;3.28;;
17141;SDS011;32805;53.556;9.944;2023-07-31T05:37:54;4.70;;;3.63;;
17141;SDS011;32805;53.556;9.944;2023-07-31T05:40:22;3.83;;;2.97;;
17141;SDS011;32805;53.556;9.944;2023-07-31T05:42:51;4.78;;;3.38;;
17141;SDS011;32805;53.556;9.944;2023-07-31T05:45:19;7.05;;;3.25;;
17141;SDS011;32805;53.556;9.944;2023-07-31T05:47:46;3.47;;;3.15;;
17141;SDS011;32805;53.556;9.944;2023-07-31T05:50:14;3.85;;;3.20;;
17141;SDS011;32805;53.556;9.944;2023-07-31T05:52:42;5.07;;;4.55;;
17141;SDS011;32805;53.556;9.944;2023-07-31T05:55:10;4.70;;;4.03;;
17141;SDS011;32805;53.556;9.944;2023-07-31T05:57:38;3.97;;;3.53;;
17141;SDS011;32805;53.556;9.944;2023-07-31T06:00:08;4.40;;;4.00;;
17141;SDS011;32805;53.556;9.944;2023-07-31T06:02:36;4.15;;;3.50;;
17141;SDS011;32805;53.556;9.944;2023-07-31T06:05:04;3.75;;;3.42;;
17141;SDS011;32805;53.556;9.944;2023-07-31T06:07:33;7.63;;;4.55;;
17141;SDS011;32805;53.556;9.944;2023-07-31T06:10:00;4.88;;;3.95;;
17141;SDS011;32805;53.556;9.944;2023-07-31T06:12:32;4.70;;;4.30;;
17141;SDS011;32805;53.556;9.944;2023-07-31T06:15:00;5.38;;;4.05;;
17141;SDS011;32805;53.556;9.944;2023-07-31T06:17:30;5.88;;;4.43;;
17141;SDS011;32805;53.556;9.944;2023-07-31T06:19:58;4.25;;;3.70;;
17141;SDS011;32805;53.556;9.944;2023-07-31T06:22:25;6.70;;;4.35;;
17141;SDS011;32805;53.556;9.944;2023-07-31T06:24:53;3.88;;;3.50;;
17141;SDS011;32805;53.556;9.944;2023-07-31T06:27:21;4.82;;;3.80;;
17141;SDS011;32805;53.556;9.944;2023-07-31T06:29:48;4.13;;;3.55;;
17141;SDS011;32805;53.556;9.944;2023-07-31T06:32:16;5.15;;;4.03;;
17141;SDS011;32805;53.556;9.944;2023-07-31T06:34:45;5.72;;;4.85;;
17141;SDS011;32805;53.556;9.944;2023-07-31T06:37:13;4.63;;;4.22;;
17141;SDS011;32805;53.556;9.944;2023-07-31T06:39:40;4.25;;;3.50;;
17141;SDS011;32805;53.556;9.944;2023-07-31T06:42:08;4.28;;;3.83;;
17141;SDS011;32805;53.556;9.944;2023-07-31T06:44:36;6.00;;;4.85;;
17141;SDS011;32805;53.556;9.944;2023-07-31T06:47:03;3.95;;;3.42;;
17141;SDS011;32805;53.556;9.944;2023-07-31T06:49:32;4.40;;;4.00;;
17141;SDS011;32805;53.556;9.944;2023-07-31T06:52:01;4.05;;;3.55;;
17141;SDS011;32805;53.556;9.944;2023-07-31T06:54:28;7.03;;;5.47;;
17141;SDS011;32805;53.556;9.944;2023-07-31T06:56:56;5.18;;;4.65;;
17141;SDS011;32805;53.556;9.944;2023-07-31T06:59:24;3.50;;;3.20;;
17141;SDS011;32805;53.556;9.944;2023-07-31T07:01:52;5.72;;;4.78;;
17141;SDS011;32805;53.556;9.944;2023-07-31T07:04:19;3.60;;;3.30;;
17141;SDS011;32805;53.556;9.944;2023-07-31T07:06:47;4.55;;;3.67;;
17141;SDS011;32805;53.556;9.944;2023-07-31T07:09:16;6.05;;;4.70;;
17141;SDS011;32805;53.556;9.944;2023-07-31T07:11:44;3.95;;;3.65;;
17141;SDS011;32805;53.556;9.944;2023-07-31T07:14:11;4.95;;;3.70;;
17141;SDS011;32805;53.556;9.944;2023-07-31T07:16:39;5.50;;;4.22;;
17141;SDS011;32805;53.556;9.944;2023-07-31T07:19:08;8.02;;;6.20;;
17141;SDS011;32805;53.556;9.944;2023-07-31T07:21:35;5.78;;;4.45;;
17141;SDS011;32805;53.556;9.944;2023-07-31T07:24:03;6.78;;;5.75;;
17141;SDS011;32805;53.556;9.944;2023-07-31T07:26:32;5.47;;;4.05;;
17141;SDS011;32805;53.556;9.944;2023-07-31T07:29:00;5.00;;;4.47;;
17141;SDS011;32805;53.556;9.944;2023-07-31T07:31:28;3.80;;;3.50;;
17141;SDS011;32805;53.556;9.944;2023-07-31T07:33:56;5.93;;;3.83;;
17141;SDS011;32805;53.556;9.944;2023-07-31T07:36:24;4.80;;;3.53;;
17141;SDS011;32805;53.556;9.944;2023-07-31T07:38:51;7.30;;;5.10;;
17141;SDS011;32805;53.556;9.944;2023-07-31T07:41:19;7.03;;;5.55;;
17141;SDS011;32805;53.556;9.944;2023-07-31T07:43:48;4.88;;;3.38;;
17141;SDS011;32805;53.556;9.944;2023-07-31T07:46:16;4.10;;;3.72;;
17141;SDS011;32805;53.556;9.944;2023-07-31T07:48:43;4.53;;;3.53;;
17141;SDS011;32805;53.556;9.944;2023-07-31T07:51:11;6.72;;;4.90;;
17141;SDS011;32805;53.556;9.944;2023-07-31T07:53:38;13.90;;;9.60;;
17141;SDS011;32805;53.556;9.944;2023-07-31T07:56:06;3.60;;;3.28;;
17141;SDS011;32805;53.556;9.944;2023-07-31T07:58:34;6.32;;;4.65;;
17141;SDS011;32805;53.556;9.944;2023-07-31T08:01:03;6.70;;;4.40;;
17141;SDS011;32805;53.556;9.944;2023-07-31T08:03:30;9.85;;;6.15;;
17141;SDS011;32805;53.556;9.944;2023-07-31T08:05:58;5.63;;;3.65;;
17141;SDS011;32805;53.556;9.944;2023-07-31T08:08:26;16.10;;;11.25;;
17141;SDS011;32805;53.556;9.944;2023-07-31T08:10:55;7.07;;;5.38;;
17141;SDS011;32805;53.556;9.944;2023-07-31T08:13:23;15.23;;;9.77;;
17141;SDS011;32805;53.556;9.944;2023-07-31T08:15:50;9.80;;;7.15;;
17141;SDS011;32805;53.556;9.944;2023-07-31T08:18:19;11.38;;;6.20;;
17141;SDS011;32805;53.556;9.944;2023-07-31T08:20:47;17.85;;;10.15;;
17141;SDS011;32805;53.556;9.944;2023-07-31T08:23:15;3.30;;;3.00;;
17141;SDS011;32805;53.556;9.944;2023-07-31T08:25:42;5.55;;;4.80;;
17141;SDS011;32805;53.556;9.944;2023-07-31T08:28:10;11.65;;;8.65;;
17141;SDS011;32805;53.556;9.944;2023-07-31T08:30:38;4.00;;;3.22;;
17141;SDS011;32805;53.556;9.944;2023-07-31T08:33:06;7.88;;;5.82;;
17141;SDS011;32805;53.556;9.944;2023-07-31T08:35:36;3.13;;;2.20;;
17141;SDS011;32805;53.556;9.944;2023-07-31T08:38:03;7.68;;;5.25;;
17141;SDS011;32805;53.556;9.944;2023-07-31T08:40:31;5.20;;;4.30;;
17141;SDS011;32805;53.556;9.944;2023-07-31T08:42:59;5.80;;;4.93;;
17141;SDS011;32805;53.556;9.944;2023-07-31T08:45:28;5.80;;;3.65;;
17141;SDS011;32805;53.556;9.944;2023-07-31T08:47:56;5.20;;;3.40;;
17141;SDS011;32805;53.556;9.944;2023-07-31T08:50:24;2.25;;;1.70;;
17141;SDS011;32805;53.556;9.944;2023-07-31T08:52:53;3.63;;;2.40;;
17141;SDS011;32805;53.556;9.944;2023-07-31T08:55:24;7.95;;;5.40;;
17141;SDS011;32805;53.556;9.944;2023-07-31T08:57:52;2.80;;;1.90;;
17141;SDS011;32805;53.556;9.944;2023-07-31T09:00:20;1.55;;;1.30;;
17141;SDS011;32805;53.556;9.944;2023-07-31T09:02:51;2.95;;;1.80;;
17141;SDS011;32805;53.556;9.944;2023-07-31T09:05:23;1.77;;;1.65;;
17141;SDS011;32805;53.556;9.944;2023-07-31T09:07:54;1.95;;;1.77;;
17141;SDS011;32805;53.556;9.944;2023-07-31T09:10:23;1.75;;;1.25;;
17141;SDS011;32805;53.556;9.944;2023-07-31T09:12:51;2.45;;;1.42;;
17141;SDS011;32805;53.556;9.944;2023-07-31T09:15:19;4.85;;;2.30;;
17141;SDS011;32805;53.556;9.944;2023-07-31T09:18:02;6.60;;;2.50;;
17141;SDS011;32805;53.556;9.944;2023-07-31T09:20:31;5.10;;;4.07;;
17141;SDS011;32805;53.556;9.944;2023-07-31T09:23:06;2.58;;;1.70;;
17141;SDS011;32805;53.556;9.944;2023-07-31T09:25:35;1.75;;;1.40;;
17141;SDS011;32805;53.556;9.944;2023-07-31T09:28:04;3.30;;;2.50;;
17141;SDS011;32805;53.556;9.944;2023-07-31T09:30:43;2.92;;;1.67;;
17141;SDS011;32805;53.556;9.944;2023-07-31T09:33:13;1.40;;;1.20;;
17141;SDS011;32805;53.556;9.944;2023-07-31T09:35:41;1.45;;;1.35;;
17141;SDS011;32805;53.556;9.944;2023-07-31T09:38:10;1.77;;;1.65;;
17141;SDS011;32805;53.556;9.944;2023-07-31T09:40:40;1.30;;;1.10;;
17141;SDS011;32805;53.556;9.944;2023-07-31T09:43:10;1.35;;;1.20;;
17141;SDS011;32805;53.556;9.944;2023-07-31T09:45:38;1.63;;;1.50;;
17141;SDS011;32805;53.556;9.944;2023-07-31T09:48:08;1.70;;;1.60;;
17141;SDS011;32805;53.556;9.944;2023-07-31T09:50:37;2.17;;;1.70;;
17141;SDS011;32805;53.556;9.944;2023-07-31T09:53:06;2.00;;;1.60;;
17141;SDS011;32805;53.556;9.944;2023-07-31T09:55:36;2.20;;;1.70;;
17141;SDS011;32805;53.556;9.944;2023-07-31T09:58:04;2.72;;;1.75;;
17141;SDS011;32805;53.556;9.944;2023-07-31T10:00:33;3.38;;;2.08;;
17141;SDS011;32805;53.556;9.944;2023-07-31T10:03:04;1.83;;;1.40;;
17141;SDS011;32805;53.556;9.944;2023-07-31T10:05:34;1.30;;;1.20;;
17141;SDS011;32805;53.556;9.944;2023-07-31T10:08:03;1.30;;;1.20;;
17141;SDS011;32805;53.556;9.944;2023-07-31T10:10:31;1.40;;;1.30;;
17141;SDS011;32805;53.556;9.944;2023-07-31T10:13:01;1.25;;;1.00;;
17141;SDS011;32805;53.556;9.944;2023-07-31T10:15:29;1.40;;;1.05;;
17141;SDS011;32805;53.556;9.944;2023-07-31T10:17:57;2.13;;;1.17;;
17141;SDS011;32805;53.556;9.944;2023-07-31T10:20:26;0.90;;;0.85;;
17141;SDS011;32805;53.556;9.944;2023-07-31T10:22:55;1.77;;;0.70;;
17141;SDS011;32805;53.556;9.944;2023-07-31T10:25:24;0.88;;;0.70;;
17141;SDS011;32805;53.556;9.944;2023-07-31T10:27:54;1.58;;;0.70;;
17141;SDS011;32805;53.556;9.944;2023-07-31T10:30:24;1.00;;;0.68;;
17141;SDS011;32805;53.556;9.944;2023-07-31T10:32:54;0.68;;;0.63;;
17141;SDS011;32805;53.556;9.944;2023-07-31T10:35:23;1.25;;;0.60;;
17141;SDS011;32805;53.556;9.944;2023-07-31T10:37:51;1.00;;;0.90;;
17141;SDS011;32805;53.556;9.944;2023-07-31T10:40:23;1.90;;;1.08;;
17141;SDS011;32805;53.556;9.944;2023-07-31T10:42:52;1.05;;;0.95;;
17141;SDS011;32805;53.556;9.944;2023-07-31T10:45:25;1.70;;;0.90;;
17141;SDS011;32805;53.556;9.944;2023-07-31T10:47:58;0.95;;;0.93;;
17141;SDS011;32805;53.556;9.944;2023-07-31T10:50:27;1.55;;;1.08;;
17141;SDS011;32805;53.556;9.944;2023-07-31T10:52:56;2.17;;;1.65;;
17141;SDS011;32805;53.556;9.944;2023-07-31T10:55:28;2.95;;;1.88;;
17141;SDS011;32805;53.556;9.944;2023-07-31T10:57:58;3.45;;;2.20;;
17141;SDS011;32805;53.556;9.944;2023-07-31T11:00:34;2.45;;;2.17;;
17141;SDS011;32805;53.556;9.944;2023-07-31T11:03:05;2.53;;;1.90;;
17141;SDS011;32805;53.556;9.944;2023-07-31T11:05:42;1.95;;;1.73;;
17141;SDS011;32805;53.556;9.944;2023-07-31T11:08:21;2.63;;;2.20;;
17141;SDS011;32805;53.556;9.944;2023-07-31T11:10:50;4.80;;;3.70;;
17141;SDS011;32805;53.556;9.944;2023-07-31T11:13:33;6.22;;;3.92;;
17141;SDS011;32805;53.556;9.944;2023-07-31T11:16:02;4.25;;;3.65;;
17141;SDS011;32805;53.556;9.944;2023-07-31T11:18:30;5.80;;;4.22;;
17141;SDS011;32805;53.556;9.944;2023-07-31T11:20:58;5.75;;;3.42;;
17141;SDS011;32805;53.556;9.944;2023-07-31T11:23:26;4.82;;;4.07;;
17141;SDS011;32805;53.556;9.944;2023-07-31T11:25:53;6.20;;;4.07;;
17141;SDS011;32805;53.556;9.944;2023-07-31T11:28:30;6.53;;;4.38;;
17141;SDS011;32805;53.556;9.944;2023-07-31T11:30:59;7.78;;;4.35;;
17141;SDS011;32805;53.556;9.944;2023-07-31T11:33:28;4.68;;;3.45;;
17141;SDS011;32805;53.556;9.944;2023-07-31T11:35:56;8.57;;;5.20;;
17141;SDS011;32805;53.556;9.944;2023-07-31T11:38:26;6.43;;;3.35;;
17141;SDS011;32805;53.556;9.944;2023-07-31T11:40:55;3.80;;;2.38;;
17141;SDS011;32805;53.556;9.944;2023-07-31T11:43:24;3.08;;;2.25;;
17141;SDS011;32805;53.556;9.944;2023-07-31T11:45:54;5.97;;;2.45;;
17141;SDS011;32805;53.556;9.944;2023-07-31T11:48:23;2.25;;;1.20;;
17141;SDS011;32805;53.556;9.944;2023-07-31T11:50:56;7.63;;;2.38;;
17141;SDS011;32805;53.556;9.944;2023-07-31T11:53:26;5.22;;;1.02;;
17141;SDS011;32805;53.556;9.944;2023-07-31T11:55:56;2.83;;;1.20;;
17141;SDS011;32805;53.556;9.944;2023-07-31T11:58:26;1.65;;;0.90;;
17141;SDS011;32805;53.556;9.944;2023-07-31T12:00:54;0.95;;;0.70;;
17141;SDS011;32805;53.556;9.944;2023-07-31T12:03:23;3.42;;;1.45;;
17141;SDS011;32805;53.556;9.944;2023-07-31T12:05:52;0.85;;;0.73;;
17141;SDS011;32805;53.556;9.944;2023-07-31T12:08:22;1.65;;;0.90;;
17141;SDS011;32805;53.556;9.944;2023-07-31T12:10:51;1.30;;;0.70;;
17141;SDS011;32805;53.556;9.944;2023-07-31T12:13:20;1.48;;;0.80;;
17141;SDS011;32805;53.556;9.944;2023-07-31T12:15:53;0.82;;;0.70;;
17141;SDS011;32805;53.556;9.944;2023-07-31T12:18:23;5.75;;;1.73;;
17141;SDS011;32805;53.556;9.944;2023-07-31T12:20:53;5.35;;;1.65;;
17141;SDS011;32805;53.556;9.944;2023-07-31T12:23:24;4.47;;;1.30;;
17141;SDS011;32805;53.556;9.944;2023-07-31T12:26:01;3.30;;;1.63;;
17141;SDS011;32805;53.556;9.944;2023-07-31T12:28:29;7.68;;;1.80;;
17141;SDS011;32805;53.556;9.944;2023-07-31T12:30:57;4.47;;;1.40;;
17141;SDS011;32805;53.556;9.944;2023-07-31T12:33:30;2.70;;;1.00;;
17141;SDS011;32805;53.556;9.944;2023-07-31T12:36:00;2.28;;;1.08;;
17141;SDS011;32805;53.556;9.944;2023-07-31T12:38:29;1.60;;;1.00;;
17141;SDS011;32805;53.556;9.944;2023-07-31T12:40:57;3.40;;;0.98;;
17141;SDS011;32805;53.556;9.944;2023-07-31T12:43:25;2.13;;;1.05;;
17141;SDS011;32805;53.556;9.944;2023-07-31T12:45:54;1.50;;;1.17;;
17141;SDS011;32805;53.556;9.944;2023-07-31T12:48:22;2.55;;;1.30;;
17141;SDS011;32805;53.556;9.944;2023-07-31T12:50:50;1.40;;;0.95;;
17141;SDS011;32805;53.556;9.944;2023-07-31T12:53:17;1.95;;;1.20;;
17141;SDS011;32805;53.556;9.944;2023-07-31T12:55:46;1.10;;;0.90;;
17141;SDS011;32805;53.556;9.944;2023-07-31T12:58:14;3.05;;;0.95;;
17141;SDS011;32805;53.556;9.944;2023-07-31T13:00:42;0.80;;;0.80;;
17141;SDS011;32805;53.556;9.944;2023-07-31T13:03:09;2.00;;;1.15;;
17141;SDS011;32805;53.556;9.944;2023-07-31T13:05:38;1.55;;;1.40;;
17141;SDS011;32805;53.556;9.944;2023-07-31T13:08:06;3.03;;;1.35;;
17141;SDS011;32805;53.556;9.944;2023-07-31T13:10:33;3.05;;;1.92;;
17141;SDS011;32805;53.556;9.944;2023-07-31T13:13:02;2.72;;;1.40;;
17141;SDS011;32805;53.556;9.944;2023-07-31T13:15:30;2.50;;;1.80;;
17141;SDS011;32805;53.556;9.944;2023-07-31T13:17:58;2.92;;;2.05;;
17141;SDS011;32805;53.556;9.944;2023-07-31T13:20:26;8.00;;;3.28;;
17141;SDS011;32805;53.556;9.944;2023-07-31T13:22:54;4.35;;;2.40;;
17141;SDS011;32805;53.556;9.944;2023-07-31T13:25:22;3.33;;;2.63;;
17141;SDS011;32805;53.556;9.944;2023-07-31T13:27:49;2.80;;;2.42;;
17141;SDS011;32805;53.556;9.944;2023-07-31T13:30:18;3.70;;;2.67;;
17141;SDS011;32805;53.556;9.944;2023-07-31T13:32:46;2.78;;;2.47;;
17141;SDS011;32805;53.556;9.944;2023-07-31T13:35:14;2.42;;;2.22;;
17141;SDS011;32805;53.556;9.944;2023-07-31T13:37:41;2.30;;;2.10;;
17141;SDS011;32805;53.556;9.944;2023-07-31T13:40:09;2.53;;;2.15;;
17141;SDS011;32805;53.556;9.944;2023-07-31T13:42:38;3.38;;;2.05;;
17141;SDS011;32805;53.556;9.944;2023-07-31T13:45:06;4.47;;;2.65;;
17141;SDS011;32805;53.556;9.944;2023-07-31T13:47:35;6.75;;;3.35;;
17141;SDS011;32805;53.556;9.944;2023-07-31T13:50:04;4.40;;;3.10;;
17141;SDS011;32805;53.556;9.944;2023-07-31T13:52:32;4.07;;;2.58;;
17141;SDS011;32805;53.556;9.944;2023-07-31T13:55:00;3.47;;;3.17;;
17141;SDS011;32805;53.556;9.944;2023-07-31T13:57:27;3.55;;;3.15;;
17141;SDS011;32805;53.556;9.944;2023-07-31T13:59:55;4.18;;;3.25;;
17141;SDS011;32805;53.556;9.944;2023-07-31T14:02:23;3.47;;;2.47;;
17141;SDS011;32805;53.556;9.944;2023-07-31T14:04:52;4.15;;;2.53;;
17141;SDS011;32805;53.556;9.944;2023-07-31T14:07:20;2.78;;;2.47;;
17141;SDS011;32805;53.556;9.944;2023-07-31T14:09:47;3.15;;;1.83;;
17141;SDS011;32805;53.556;9.944;2023-07-31T14:12:15;2.92;;;2.50;;
17141;SDS011;32805;53.556;9.944;2023-07-31T14:15:03;4.43;;;2.70;;
17141;SDS011;32805;53.556;9.944;2023-07-31T14:17:31;3.40;;;2.20;;
17141;SDS011;32805;53.556;9.944;2023-07-31T14:20:00;5.85;;;1.65;;
17141;SDS011;32805;53.556;9.944;2023-07-31T14:22:29;1.40;;;1.25;;
17141;SDS011;32805;53.556;9.944;2023-07-31T14:24:58;2.25;;;1.35;;
17141;SDS011;32805;53.556;9.944;2023-07-31T14:27:25;2.47;;;1.65;;
17141;SDS011;32805;53.556;9.944;2023-07-31T14:29:54;5.78;;;1.80;;
17141;SDS011;32805;53.556;9.944;2023-07-31T14:32:22;1.90;;;1.55;;
17141;SDS011;32805;53.556;9.944;2023-07-31T14:34:51;3.88;;;1.98;;
17141;SDS011;32805;53.556;9.944;2023-07-31T14:37:22;6.70;;;2.30;;
17141;SDS011;32805;53.556;9.944;2023-07-31T14:39:49;7.93;;;3.53;;
17141;SDS011;32805;53.556;9.944;2023-07-31T14:42:17;9.15;;;5.10;;
17141;SDS011;32805;53.556;9.944;2023-07-31T14:44:45;11.85;;;4.35;;
17141;SDS011;32805;53.556;9.944;2023-07-31T14:47:14;6.95;;;3.45;;
17141;SDS011;32805;53.556;9.944;2023-07-31T14:49:42;9.02;;;1.98;;
17141;SDS011;32805;53.556;9.944;2023-07-31T14:52:09;1.70;;;1.45;;
17141;SDS011;32805;53.556;9.944;2023-07-31T14:54:38;2.65;;;1.60;;
17141;SDS011;32805;53.556;9.944;2023-07-31T14:57:06;4.68;;;2.28;;